»·PEaware :: N855CP KDTA-KSLC

N855CP :: KDTA-KSLC

FLIGHT INFORMATION

Flight Status: Arrived
Operator: Privately registered:
United States
More flights under this callsign
Pilot: Maurice M. (7578)
Aircraft: CESSNA 172 SKYHAWK
(C172)
More flights by this aircraft type
Origin: KDTA Delta Mun
United States
Destination: KSLC Salt Lake City Intl
United States
More flights between these airports :: More routes between these airports
Route: PUCIT V21 MASIE
File this flight plan on PilotEdge
Remarks:
Altitude:
(Current/Filed)
11,000ft
Speed:
(Current/Filed)
110kts
Departed: 12-Jan-17 06:17 PM
Arrived: 12-Jan-17 07:13 PM
Distance/Time
Traveled:
88nm/0:56
Distance/Time
To Go:
Arrived

Flight Plot

Page will automatically refresh every two minutes.


Map Options




Map Legend


Flown Route
Filed Route
Departure Airport
Arrival Airport
Navaid (VOR, NDB)
Fix

Horizontal Profiles

Position Reports

Time Latitude Longitude Heading Altitude Ground
Speed
12-Jan-17 18:09 39.375240 -112.503024 132 4749ft 0kts
12-Jan-17 18:10 39.375240 -112.503024 132 4749ft 0kts
12-Jan-17 18:11 39.375240 -112.503024 132 4749ft 0kts
12-Jan-17 18:12 39.375225 -112.503003 132 4749ft 0kts
12-Jan-17 18:13 39.375225 -112.503003 132 4749ft 0kts
12-Jan-17 18:14 39.375225 -112.503003 132 4749ft 0kts
12-Jan-17 18:15 39.375225 -112.503003 132 4749ft 0kts
12-Jan-17 18:16 39.375225 -112.503003 132 4749ft 0kts
12-Jan-17 18:17 39.381169 -112.502201 359 4803ft 74kts
12-Jan-17 18:18 39.403040 -112.499303 8 5566ft 90kts
12-Jan-17 18:19 39.418261 -112.476814 38 6485ft 88kts
12-Jan-17 18:20 39.429356 -112.463079 31 7091ft 80kts
12-Jan-17 18:21 39.442673 -112.451322 6 7651ft 82kts
12-Jan-17 18:22 39.459065 -112.443479 12 8275ft 86kts
12-Jan-17 18:23 39.477189 -112.433120 18 8954ft 87kts
12-Jan-17 18:24 39.496475 -112.420815 21 9580ft 93kts
12-Jan-17 18:25 39.517347 -112.407320 14 10219ft 95kts
12-Jan-17 18:26 39.540071 -112.392199 8 10829ft 101kts
12-Jan-17 18:27 39.567545 -112.377897 21 11075ft 117kts
12-Jan-17 18:28 39.597162 -112.357537 22 11074ft 124kts
12-Jan-17 18:29 39.628312 -112.337475 22 11073ft 125kts
12-Jan-17 18:30 39.659561 -112.317373 22 11046ft 127kts
12-Jan-17 18:31 39.690971 -112.297139 22 11046ft 126kts
12-Jan-17 18:32 39.722210 -112.276572 25 11041ft 127kts
12-Jan-17 18:33 39.753185 -112.254249 25 11010ft 127kts
12-Jan-17 18:34 39.784125 -112.231956 25 11012ft 126kts
12-Jan-17 18:35 39.814826 -112.209876 25 11016ft 126kts
12-Jan-17 18:36 39.845615 -112.187811 25 11021ft 126kts
12-Jan-17 18:37 39.877063 -112.167749 19 11028ft 126kts
12-Jan-17 18:38 39.909222 -112.150053 18 11032ft 126kts
12-Jan-17 18:39 39.940486 -112.132903 18 11035ft 126kts
12-Jan-17 18:40 39.968921 -112.117332 18 11037ft 126kts
12-Jan-17 18:41 39.999812 -112.100441 18 11037ft 126kts
12-Jan-17 18:42 40.032108 -112.082806 18 11035ft 126kts
12-Jan-17 18:43 40.064042 -112.064444 23 11062ft 125kts
12-Jan-17 18:44 40.095347 -112.043021 26 10999ft 131kts
12-Jan-17 18:45 40.128311 -112.026906 352 10840ft 129kts
12-Jan-17 18:46 40.162267 -112.029107 351 10829ft 122kts
12-Jan-17 18:47 40.195252 -112.024462 1 10955ft 120kts
12-Jan-17 18:48 40.228121 -112.016246 5 11028ft 121kts
12-Jan-17 18:49 40.261268 -112.010169 1 10940ft 119kts
12-Jan-17 18:50 40.292353 -112.003112 358 10876ft 113kts
12-Jan-17 18:51 40.323467 -111.998027 0 10991ft 113kts
12-Jan-17 18:52 40.355255 -111.995454 350 10884ft 123kts
12-Jan-17 18:53 40.377230 -111.992608 28 10855ft 126kts
12-Jan-17 18:54 40.399643 -111.963200 48 9763ft 131kts
12-Jan-17 18:55 40.422787 -111.944968 14 9062ft 109kts
12-Jan-17 18:56 40.439513 -111.938696 1 8942ft 95kts
12-Jan-17 18:57 40.452460 -111.936915 357 8908ft 93kts
12-Jan-17 18:58 40.465507 -111.935426 349 8887ft 101kts
12-Jan-17 18:59 40.480796 -111.937438 345 8912ft 106kts
12-Jan-17 19:00 40.496983 -111.940890 342 8923ft 106kts
12-Jan-17 19:01 40.516886 -111.943963 349 8933ft 103kts
12-Jan-17 19:02 40.538235 -111.947109 345 8655ft 108kts
12-Jan-17 19:03 40.557296 -111.950760 352 8255ft 103kts
12-Jan-17 19:04 40.575857 -111.951434 356 7973ft 104kts
12-Jan-17 19:05 40.594416 -111.950669 355 7712ft 106kts
12-Jan-17 19:06 40.615740 -111.953388 348 7468ft 109kts
12-Jan-17 19:07 40.644420 -111.957220 354 7042ft 109kts
12-Jan-17 19:08 40.672650 -111.958015 339 6431ft 86kts
12-Jan-17 19:09 40.696403 -111.964268 346 5697ft 87kts
12-Jan-17 19:10 40.720325 -111.966370 352 5201ft 90kts
12-Jan-17 19:11 40.744734 -111.969363 348 4818ft 90kts
12-Jan-17 19:12 40.769116 -111.972454 349 4343ft 78kts
12-Jan-17 19:13 40.782874 -111.974102 358 4223ft 22kts
12-Jan-17 19:14 40.787099 -111.975221 325 4220ft 13kts
12-Jan-17 19:15 40.787731 -111.975784 313 4220ft 0kts
12-Jan-17 19:16 40.789020 -111.976889 335 4220ft 5kts
12-Jan-17 19:17 40.791415 -111.977246 350 4220ft 10kts
12-Jan-17 19:18 40.794965 -111.977696 343 4220ft 18kts

Navigation Log

Ident Type
Flight plan parsing failed, navigation log unavailable